createdAt,value
2018-09-08T00:02:00.911Z,11.67
2018-09-08T00:04:30.007Z,3.90
2018-09-08T00:07:04.232Z,5.17
2018-09-08T00:09:33.031Z,4.67
2018-09-08T00:12:02.603Z,4.67
2018-09-08T00:14:31.504Z,7.43
2018-09-08T00:17:05.476Z,6.87
2018-09-08T00:19:39.729Z,6.30
2018-09-08T00:22:13.733Z,9.63
2018-09-08T00:24:47.961Z,4.53
2018-09-08T00:27:21.205Z,5.10
2018-09-08T00:29:51.160Z,9.20
2018-09-08T00:32:21.348Z,5.70
2018-09-08T00:34:50.786Z,5.20
2018-09-08T00:37:19.792Z,4.37
2018-09-08T00:39:51.807Z,4.13
2018-09-08T00:42:20.904Z,7.50
2018-09-08T00:44:49.742Z,8.10
2018-09-08T00:47:18.792Z,5.03
2018-09-08T00:49:47.681Z,5.77
2018-09-08T00:52:16.608Z,6.43
2018-09-08T00:54:45.508Z,4.83
2018-09-08T00:57:14.455Z,11.60
2018-09-08T00:59:43.292Z,6.30
2018-09-08T01:02:12.378Z,5.43
2018-09-08T01:04:41.677Z,4.70
2018-09-08T01:07:16.097Z,5.33
2018-09-08T01:09:44.872Z,7.00
2018-09-08T01:12:13.983Z,4.37
2018-09-08T01:14:42.741Z,6.70
2018-09-08T01:17:11.601Z,3.93
2018-09-08T01:19:40.448Z,5.47
2018-09-08T01:22:09.307Z,4.70
2018-09-08T01:24:38.224Z,4.33
2018-09-08T01:27:07.152Z,4.10
2018-09-08T01:29:36.388Z,5.87
2018-09-08T01:32:05.323Z,6.17
2018-09-08T01:34:34.646Z,4.37
2018-09-08T01:37:03.364Z,4.57
2018-09-08T01:39:32.712Z,4.70
2018-09-08T01:42:01.791Z,3.60
2018-09-08T01:44:30.660Z,7.63
2018-09-08T01:46:59.780Z,7.73
2018-09-08T01:49:28.676Z,5.70
2018-09-08T01:51:57.532Z,3.83
2018-09-08T01:54:26.668Z,6.30
2018-09-08T01:56:55.476Z,5.37
2018-09-08T01:59:24.385Z,5.13
2018-09-08T02:01:53.752Z,4.40
2018-09-08T02:04:22.947Z,6.20
2018-09-08T02:06:52.145Z,9.17
2018-09-08T02:09:21.268Z,4.13
2018-09-08T02:11:50.076Z,5.77
2018-09-08T02:14:19.185Z,5.50
2018-09-08T02:16:48.415Z,4.60
2018-09-08T02:19:17.256Z,11.10
2018-09-08T02:21:46.041Z,3.93
2018-09-08T02:24:14.985Z,10.90
2018-09-08T02:26:43.872Z,7.90
2018-09-08T02:29:12.765Z,4.07
2018-09-08T02:31:41.666Z,5.30
2018-09-08T02:34:10.544Z,5.00
2018-09-08T02:36:39.687Z,4.53
2018-09-08T02:39:10.031Z,6.03
2018-09-08T02:41:39.124Z,7.90
2018-09-08T02:44:08.034Z,5.10
2018-09-08T02:46:37.059Z,4.23
2018-09-08T02:49:06.255Z,5.40
2018-09-08T02:51:33.808Z,4.77
2018-09-08T02:54:01.375Z,5.00
2018-09-08T02:56:29.140Z,4.70
2018-09-08T02:58:56.802Z,6.70
2018-09-08T03:01:24.417Z,7.93
2018-09-08T03:03:52.043Z,12.33
2018-09-08T03:06:20.191Z,6.93
2018-09-08T03:08:47.859Z,6.40
2018-09-08T03:11:15.546Z,4.83
2018-09-08T03:13:43.387Z,5.40
2018-09-08T03:16:11.228Z,7.90
2018-09-08T03:18:38.907Z,5.53
2018-09-08T03:21:06.708Z,8.33
2018-09-08T03:23:34.444Z,5.87
2018-09-08T03:26:02.102Z,4.87
2018-09-08T03:28:30.176Z,4.70
2018-09-08T03:30:57.828Z,4.80
2018-09-08T03:33:25.502Z,4.53
2018-09-08T03:35:53.112Z,7.47
2018-09-08T03:38:20.732Z,5.33
2018-09-08T03:40:48.488Z,8.20
2018-09-08T03:43:16.052Z,6.30
2018-09-08T03:45:43.560Z,6.30
2018-09-08T03:48:11.180Z,5.70
2018-09-08T03:50:38.684Z,6.63
2018-09-08T03:53:06.305Z,6.60
2018-09-08T03:55:33.812Z,7.77
2018-09-08T03:58:01.492Z,6.00
2018-09-08T04:06:21.640Z,5.70
2018-09-08T04:08:50.514Z,5.13
2018-09-08T04:11:19.636Z,4.97
2018-09-08T04:13:48.700Z,4.87
2018-09-08T04:16:17.516Z,7.30
2018-09-08T04:18:46.144Z,8.03
2018-09-08T04:21:14.917Z,8.53
2018-09-08T04:23:43.813Z,8.40
2018-09-08T04:26:12.844Z,7.30
2018-09-08T04:28:41.639Z,6.90
2018-09-08T04:31:10.563Z,5.70
2018-09-08T04:33:39.426Z,8.00
2018-09-08T04:36:08.234Z,5.90
2018-09-08T04:38:37.155Z,5.17
2018-09-08T04:41:06.357Z,5.93
2018-09-08T04:43:35.072Z,10.27
2018-09-08T04:46:03.917Z,5.50
2018-09-08T04:48:32.754Z,6.97
2018-09-08T04:51:01.581Z,5.83
2018-09-08T04:53:30.840Z,6.03
2018-09-08T04:55:59.944Z,8.03
2018-09-08T04:58:29.040Z,12.30
2018-09-08T05:00:57.941Z,7.67
2018-09-08T05:03:27.212Z,6.47
2018-09-08T05:05:56.272Z,8.70
2018-09-08T05:08:25.588Z,9.47
2018-09-08T05:10:54.517Z,5.93
2018-09-08T05:13:23.413Z,7.53
2018-09-08T05:15:52.509Z,9.07
2018-09-08T05:18:21.816Z,7.40
2018-09-08T05:20:57.516Z,7.60
2018-09-08T05:23:29.454Z,6.00
2018-09-08T05:25:58.680Z,5.83
2018-09-08T05:28:27.554Z,7.07
2018-09-08T05:30:56.906Z,8.27
2018-09-08T05:33:26.281Z,9.80
2018-09-08T05:35:55.731Z,8.87
2018-09-08T05:38:24.599Z,8.97
2018-09-08T05:40:53.708Z,6.23
2018-09-08T05:43:23.518Z,9.00
2018-09-08T05:45:52.562Z,7.53
2018-09-08T05:48:21.727Z,11.67
2018-09-08T05:50:50.619Z,8.70
2018-09-08T05:53:19.578Z,9.80
2018-09-08T05:55:49.762Z,7.47
2018-09-08T05:58:18.826Z,14.40
2018-09-08T06:00:47.721Z,13.03
2018-09-08T06:03:16.744Z,9.27
2018-09-08T06:05:45.624Z,11.93
2018-09-08T06:08:14.454Z,12.07
2018-09-08T06:10:43.223Z,19.30
2018-09-08T06:13:12.156Z,9.40
2018-09-08T06:15:41.013Z,9.20
2018-09-08T06:18:10.350Z,11.87
2018-09-08T06:20:39.164Z,11.03
2018-09-08T06:23:08.130Z,9.30
2018-09-08T06:25:37.048Z,5.57
2018-09-08T06:28:06.102Z,7.17
2018-09-08T06:30:34.975Z,7.30
2018-09-08T06:33:03.857Z,6.03
2018-09-08T06:35:32.704Z,6.27
2018-09-08T06:38:01.676Z,9.30
2018-09-08T06:40:30.462Z,10.10
2018-09-08T06:42:59.258Z,14.60
2018-09-08T06:45:28.127Z,9.57
2018-09-08T06:47:57.215Z,8.63
2018-09-08T06:50:26.429Z,7.00
2018-09-08T06:52:55.183Z,10.00
2018-09-08T06:55:23.975Z,8.27
2018-09-08T06:57:52.940Z,8.20
2018-09-08T07:00:21.782Z,7.43
2018-09-08T07:02:50.671Z,6.87
2018-09-08T07:05:19.595Z,9.13
2018-09-08T07:07:48.414Z,6.03
2018-09-08T07:10:17.355Z,7.60
2018-09-08T07:12:46.246Z,8.10
2018-09-08T07:15:15.181Z,8.00
2018-09-08T07:17:43.982Z,6.20
2018-09-08T07:20:12.848Z,6.37
2018-09-08T07:22:41.693Z,6.53
2018-09-08T07:25:11.161Z,6.20
2018-09-08T07:27:40.003Z,11.30
2018-09-08T07:30:08.854Z,2.80
2018-09-08T07:32:37.941Z,2.90
2018-09-08T07:35:06.893Z,4.90
2018-09-08T07:37:35.935Z,3.90
2018-09-08T07:40:05.477Z,2.93
2018-09-08T07:42:34.426Z,5.27
2018-09-08T07:45:03.464Z,6.50
2018-09-08T07:47:32.290Z,4.10
2018-09-08T07:50:01.233Z,3.10
2018-09-08T07:52:30.052Z,2.40
2018-09-08T07:54:59.216Z,5.43
2018-09-08T07:57:28.041Z,3.43
2018-09-08T07:59:56.802Z,2.13
2018-09-08T08:02:25.755Z,5.07
2018-09-08T08:04:54.452Z,3.70
2018-09-08T08:07:23.206Z,6.53
2018-09-08T08:09:52.065Z,2.50
2018-09-08T08:12:21.316Z,3.50
2018-09-08T08:14:50.078Z,9.50
2018-09-08T08:17:18.825Z,1.90
2018-09-08T08:19:47.943Z,9.27
2018-09-08T08:22:17.030Z,2.03
2018-09-08T08:24:46.338Z,3.20
2018-09-08T08:27:15.191Z,4.50
2018-09-08T08:29:44.020Z,3.80
2018-09-08T08:32:12.730Z,6.60
2018-09-08T08:34:41.686Z,7.70
2018-09-08T08:37:10.612Z,3.70
2018-09-08T08:39:39.467Z,3.83
2018-09-08T08:42:09.561Z,3.90
2018-09-08T08:44:38.681Z,3.03
2018-09-08T08:47:07.497Z,5.87
2018-09-08T08:49:36.361Z,5.23
2018-09-08T08:52:16.157Z,4.40
2018-09-08T08:54:48.011Z,4.17
2018-09-08T08:57:17.160Z,13.83
2018-09-08T08:59:45.852Z,5.90
2018-09-08T09:02:14.834Z,3.13
2018-09-08T09:04:43.735Z,6.13
2018-09-08T09:07:14.235Z,3.40
2018-09-08T09:09:43.909Z,4.13
2018-09-08T09:12:12.864Z,8.73
2018-09-08T09:14:41.659Z,9.83
2018-09-08T09:17:10.632Z,4.50
2018-09-08T09:19:50.659Z,4.90
2018-09-08T09:22:30.773Z,6.63
2018-09-08T09:25:08.849Z,6.43
2018-09-08T09:27:46.707Z,6.30
2018-09-08T09:30:16.311Z,5.03
2018-09-08T09:32:45.725Z,4.07
2018-09-08T09:35:16.945Z,5.87
2018-09-08T09:37:45.689Z,4.63
2018-09-08T09:40:15.558Z,6.70
2018-09-08T09:42:44.711Z,4.57
2018-09-08T09:45:13.755Z,6.47
2018-09-08T09:47:42.592Z,5.40
2018-09-08T09:50:12.658Z,7.63
2018-09-08T09:52:41.846Z,2.80
2018-09-08T09:55:11.299Z,7.93
2018-09-08T09:57:40.236Z,5.73
2018-09-08T10:00:11.497Z,4.87
2018-09-08T10:02:41.160Z,3.97
2018-09-08T10:05:12.996Z,3.23
2018-09-08T10:07:42.055Z,2.80
2018-09-08T10:10:15.217Z,7.50
2018-09-08T10:12:44.298Z,4.53
2018-09-08T10:15:13.107Z,6.87
2018-09-08T10:17:48.618Z,13.60
2018-09-08T10:20:20.335Z,6.43
2018-09-08T10:22:49.180Z,3.73
2018-09-08T10:25:19.870Z,6.57
2018-09-08T10:27:49.272Z,7.73
2018-09-08T10:30:18.553Z,5.00
2018-09-08T10:32:47.864Z,6.10
2018-09-08T10:35:16.871Z,3.50
2018-09-08T10:37:45.780Z,5.87
2018-09-08T10:40:14.840Z,5.37
2018-09-08T10:42:44.257Z,3.00
2018-09-08T10:45:13.198Z,4.43
2018-09-08T10:47:42.280Z,10.60
2018-09-08T10:50:11.711Z,3.40
2018-09-08T10:52:44.836Z,5.80
2018-09-08T10:55:13.523Z,3.77
2018-09-08T10:57:42.547Z,6.03
2018-09-08T11:00:12.463Z,3.07
2018-09-08T11:02:41.678Z,4.17
2018-09-08T11:05:10.423Z,3.20
2018-09-08T11:07:39.747Z,1.60
2018-09-08T11:10:08.789Z,2.87
2018-09-08T11:12:37.781Z,2.50
2018-09-08T11:15:08.155Z,3.23
2018-09-08T11:17:36.877Z,3.30
2018-09-08T11:20:06.901Z,7.83
2018-09-08T11:22:36.175Z,3.33
2018-09-08T11:25:04.880Z,2.50
2018-09-08T11:27:33.682Z,3.53
2018-09-08T11:30:04.389Z,2.40
2018-09-08T11:32:34.816Z,4.57
2018-09-08T11:35:05.796Z,5.30
2018-09-08T11:37:34.785Z,3.83
2018-09-08T11:40:03.662Z,3.07
2018-09-08T11:42:36.189Z,2.90
2018-09-08T11:45:05.430Z,3.67
2018-09-08T11:47:34.079Z,4.40
2018-09-08T11:50:03.181Z,4.17
2018-09-08T11:52:32.513Z,2.60
2018-09-08T11:55:01.831Z,2.67
2018-09-08T11:57:31.282Z,5.30
2018-09-08T12:00:00.147Z,6.30
2018-09-08T12:02:29.078Z,2.23
2018-09-08T12:04:58.127Z,3.13
2018-09-08T12:07:27.144Z,3.17
2018-09-08T12:09:55.853Z,4.37
2018-09-08T12:12:24.879Z,2.50
2018-09-08T12:14:54.315Z,4.47
2018-09-08T12:17:24.032Z,2.60
2018-09-08T12:19:52.946Z,2.60
2018-09-08T12:22:22.032Z,5.20
2018-09-08T12:24:50.924Z,2.90
2018-09-08T12:27:19.811Z,6.50
2018-09-08T12:29:48.704Z,3.83
2018-09-08T12:32:17.572Z,5.30
2018-09-08T12:34:46.487Z,1.73
2018-09-08T12:37:15.927Z,1.77
2018-09-08T12:39:45.078Z,2.87
2018-09-08T12:42:14.919Z,1.70
2018-09-08T12:44:43.868Z,1.10
2018-09-08T12:47:12.978Z,4.20
2018-09-08T12:49:42.094Z,3.90
2018-09-08T12:52:10.987Z,1.27
2018-09-08T12:54:39.868Z,2.47
2018-09-08T12:57:09.142Z,1.40
2018-09-08T12:59:38.256Z,1.90
2018-09-08T13:02:07.320Z,1.63
2018-09-08T13:04:36.848Z,2.50
2018-09-08T13:07:05.935Z,1.27
2018-09-08T13:09:34.743Z,2.33
2018-09-08T13:12:03.749Z,3.67
2018-09-08T13:14:32.996Z,3.10
2018-09-08T13:17:05.972Z,2.77
2018-09-08T13:19:48.032Z,1.83
2018-09-08T13:22:21.831Z,1.47
2018-09-08T13:24:51.321Z,2.90
2018-09-08T13:27:20.238Z,4.53
2018-09-08T13:30:01.694Z,1.43
2018-09-08T13:32:33.368Z,6.13
2018-09-08T13:35:03.247Z,1.63
2018-09-08T13:37:32.489Z,1.33
2018-09-08T13:40:02.022Z,4.53
2018-09-08T13:42:30.736Z,3.30
2018-09-08T13:44:59.573Z,1.80
2018-09-08T13:47:28.614Z,3.10
2018-09-08T13:49:57.711Z,3.60
2018-09-08T13:52:26.730Z,2.50
2018-09-08T13:54:55.672Z,13.10
2018-09-08T13:57:24.641Z,10.43
2018-09-08T13:59:53.399Z,2.40
2018-09-08T14:02:22.321Z,5.90
2018-09-08T14:04:51.197Z,5.33
2018-09-08T14:07:20.921Z,2.37
2018-09-08T14:09:50.016Z,3.00
2018-09-08T14:12:18.792Z,4.20
2018-09-08T14:14:47.588Z,5.67
2018-09-08T14:17:16.467Z,7.73
2018-09-08T14:19:45.360Z,5.23
2018-09-08T14:22:14.253Z,5.40
2018-09-08T14:24:43.153Z,3.17
2018-09-08T14:27:12.443Z,6.93
2018-09-08T14:29:41.168Z,2.70
2018-09-08T14:32:10.263Z,5.80
2018-09-08T14:34:39.054Z,4.70
2018-09-08T14:37:07.968Z,5.90
2018-09-08T14:39:37.304Z,3.83
2018-09-08T14:42:06.416Z,3.60
2018-09-08T14:44:35.170Z,1.90
2018-09-08T14:47:03.936Z,3.80
2018-09-08T14:49:32.927Z,2.93
2018-09-08T14:52:01.939Z,6.00
2018-09-08T14:54:30.713Z,4.13
2018-09-08T14:57:00.031Z,3.60
2018-09-08T14:59:28.854Z,3.70
2018-09-08T15:01:57.833Z,2.10
2018-09-08T15:04:33.304Z,7.67
2018-09-08T15:07:02.249Z,3.23
2018-09-08T15:09:31.264Z,5.90
2018-09-08T15:12:00.155Z,2.20
2018-09-08T15:14:28.931Z,4.03
2018-09-08T15:16:58.360Z,5.70
2018-09-08T15:19:27.174Z,2.83
2018-09-08T15:21:56.128Z,3.60
2018-09-08T15:24:25.271Z,2.20
2018-09-08T15:26:54.286Z,4.07
2018-09-08T15:29:23.361Z,3.40
2018-09-08T15:31:52.213Z,5.30
2018-09-08T15:34:21.092Z,2.10
2018-09-08T15:36:53.448Z,2.90
2018-09-08T15:39:24.425Z,5.83
2018-09-08T15:41:54.961Z,5.80
2018-09-08T15:44:24.447Z,5.53
2018-09-08T15:46:54.063Z,4.20
2018-09-08T15:49:23.619Z,3.57
2018-09-08T15:51:53.788Z,2.97
2018-09-08T15:54:22.732Z,2.77
2018-09-08T15:56:51.721Z,7.23
2018-09-08T15:59:20.637Z,5.07
2018-09-08T16:01:49.963Z,2.00
2018-09-08T16:04:21.768Z,2.90
2018-09-08T16:06:50.545Z,4.73
2018-09-08T16:09:19.371Z,5.30
2018-09-08T16:11:48.284Z,3.93
2018-09-08T16:14:17.226Z,3.20
2018-09-08T16:16:46.244Z,16.30
2018-09-08T16:19:15.434Z,2.97
2018-09-08T16:21:44.363Z,5.93
2018-09-08T16:24:13.635Z,2.27
2018-09-08T16:26:42.535Z,3.20
2018-09-08T16:29:11.658Z,3.90
2018-09-08T16:31:41.113Z,21.67
2018-09-08T16:34:10.420Z,8.10
2018-09-08T16:36:39.376Z,3.83
2018-09-08T16:39:10.516Z,4.10
2018-09-08T16:41:39.432Z,3.47
2018-09-08T16:44:08.930Z,3.10
2018-09-08T16:46:37.654Z,6.07
2018-09-08T16:49:06.808Z,4.00
2018-09-08T16:51:36.379Z,3.47
2018-09-08T16:54:05.272Z,5.60
2018-09-08T16:56:34.131Z,3.37
2018-09-08T16:59:02.999Z,5.83
2018-09-08T17:01:31.860Z,12.23
2018-09-08T17:04:00.832Z,2.30
2018-09-08T17:06:29.709Z,3.40
2018-09-08T17:08:58.387Z,7.33
2018-09-08T17:11:27.232Z,8.17
2018-09-08T17:13:55.984Z,7.67
2018-09-08T17:16:25.286Z,6.07
2018-09-08T17:18:54.160Z,20.27
2018-09-08T17:21:23.255Z,6.63
2018-09-08T17:23:52.160Z,8.33
2018-09-08T17:26:21.069Z,7.00
2018-09-08T17:28:49.877Z,8.47
2018-09-08T17:31:18.817Z,16.70
2018-09-08T17:33:47.800Z,13.63
2018-09-08T17:36:16.736Z,6.87
2018-09-08T17:38:45.659Z,9.60
2018-09-08T17:41:14.581Z,7.40
2018-09-08T17:43:43.491Z,8.13
2018-09-08T17:46:12.381Z,6.13
2018-09-08T17:48:41.258Z,6.33
2018-09-08T17:51:10.069Z,6.13
2018-09-08T17:53:38.985Z,6.47
2018-09-08T17:56:08.288Z,11.37
2018-09-08T17:58:37.234Z,26.33
2018-09-08T18:01:06.381Z,9.40
2018-09-08T18:03:35.106Z,10.80
2018-09-08T18:06:03.936Z,7.83
2018-09-08T18:08:32.672Z,9.70
2018-09-08T18:11:01.483Z,13.60
2018-09-08T18:13:30.295Z,7.50
2018-09-08T18:15:59.718Z,15.57
2018-09-08T18:18:28.725Z,10.03
2018-09-08T18:20:57.595Z,22.40
2018-09-08T18:23:26.969Z,20.03
2018-09-08T18:25:56.052Z,8.83
2018-09-08T18:28:26.462Z,12.43
2018-09-08T18:30:58.239Z,7.90
2018-09-08T18:33:28.348Z,10.63
2018-09-08T18:36:00.046Z,9.67
2018-09-08T18:38:42.347Z,18.57
2018-09-08T18:41:16.124Z,16.20
2018-09-08T18:43:46.257Z,17.63
2018-09-08T18:46:16.480Z,12.90
2018-09-08T18:48:45.400Z,12.70
2018-09-08T18:51:14.700Z,16.80
2018-09-08T18:53:43.464Z,18.57
2018-09-08T18:56:12.288Z,21.67
2018-09-08T18:58:41.339Z,15.23
2018-09-08T19:01:10.222Z,15.90
2018-09-08T19:03:39.111Z,18.80
2018-09-08T19:06:07.971Z,12.67
2018-09-08T19:08:44.068Z,11.93
2018-09-08T19:11:14.045Z,13.63
2018-09-08T19:13:43.692Z,15.77
2018-09-08T19:16:13.813Z,16.50
2018-09-08T19:18:42.552Z,13.00
2018-09-08T19:21:12.221Z,13.03
2018-09-08T19:23:41.108Z,15.30
2018-09-08T19:26:10.188Z,12.87
2018-09-08T19:28:39.062Z,17.03
2018-09-08T19:31:08.182Z,16.43
2018-09-08T19:33:37.678Z,19.83
2018-09-08T19:36:07.298Z,27.40
2018-09-08T19:38:37.564Z,23.60
2018-09-08T19:41:06.517Z,18.10
2018-09-08T19:43:35.281Z,19.30
2018-09-08T19:46:08.136Z,14.57
2018-09-08T19:48:36.891Z,18.60
2018-09-08T19:51:06.221Z,12.13
2018-09-08T19:53:40.300Z,15.90
2018-09-08T19:56:09.040Z,15.40
2018-09-08T19:58:42.979Z,16.13
2018-09-08T20:01:11.916Z,11.10
2018-09-08T20:03:40.924Z,13.37
2018-09-08T20:06:09.638Z,13.30
2018-09-08T20:08:38.256Z,14.27
2018-09-08T20:11:11.023Z,13.30
2018-09-08T20:13:43.671Z,13.63
2018-09-08T20:16:12.369Z,19.87
2018-09-08T20:18:41.056Z,13.97
2018-09-08T20:21:09.817Z,10.60
2018-09-08T20:23:38.455Z,11.00
2018-09-08T20:26:07.941Z,14.30
2018-09-08T20:28:37.132Z,10.53
2018-09-08T20:31:06.223Z,11.37
2018-09-08T20:33:36.151Z,9.93
2018-09-08T20:36:05.560Z,9.40
2018-09-08T20:38:34.495Z,16.60
2018-09-08T20:41:03.454Z,17.30
2018-09-08T20:43:32.304Z,14.07
2018-09-08T20:46:01.835Z,12.00
2018-09-08T20:48:30.722Z,12.77
2018-09-08T20:50:59.532Z,11.03
2018-09-08T20:53:28.711Z,16.43
2018-09-08T20:55:57.600Z,20.03
2018-09-08T20:58:26.690Z,14.43
2018-09-08T21:00:55.781Z,15.03
2018-09-08T21:03:24.684Z,17.80
2018-09-08T21:05:53.814Z,13.93
2018-09-08T21:08:22.671Z,16.30
2018-09-08T21:10:51.483Z,17.47
2018-09-08T21:13:20.336Z,15.60
2018-09-08T21:15:49.343Z,11.60
2018-09-08T21:18:18.148Z,20.03
2018-09-08T21:20:46.915Z,11.03
2018-09-08T21:23:15.670Z,12.10
2018-09-08T21:25:45.109Z,11.33
2018-09-08T21:28:13.987Z,18.83
2018-09-08T21:30:43.049Z,12.03
2018-09-08T21:33:11.877Z,17.00
2018-09-08T21:35:40.592Z,15.50
2018-09-08T21:38:09.563Z,11.97
2018-09-08T21:40:38.448Z,19.67
2018-09-08T21:43:07.337Z,23.93
2018-09-08T21:45:36.400Z,15.00
2018-09-08T21:48:05.257Z,15.23
2018-09-08T21:50:34.012Z,13.03
2018-09-08T21:53:02.897Z,18.80
2018-09-08T21:55:31.897Z,13.70
2018-09-08T21:58:00.588Z,21.63
2018-09-08T22:00:29.361Z,13.00
2018-09-08T22:02:58.304Z,15.27
2018-09-08T22:05:27.291Z,21.73
2018-09-08T22:07:55.987Z,19.83
2018-09-08T22:10:25.598Z,15.90
2018-09-08T22:12:54.428Z,17.70
2018-09-08T22:15:23.798Z,16.83
2018-09-08T22:17:52.610Z,18.10
2018-09-08T22:20:21.410Z,16.87
2018-09-08T22:22:50.285Z,17.23
2018-09-08T22:25:19.014Z,18.57
2018-09-08T22:27:47.824Z,14.53
2018-09-08T22:30:16.874Z,18.53
2018-09-08T22:32:45.981Z,18.30
2018-09-08T22:35:15.072Z,18.37
2018-09-08T22:37:43.832Z,16.30
2018-09-08T22:40:12.645Z,15.53
2018-09-08T22:42:41.495Z,15.60
2018-09-08T22:45:10.423Z,16.47
2018-09-08T22:47:39.145Z,14.03
2018-09-08T22:50:07.967Z,17.80
2018-09-08T22:52:37.101Z,15.40
2018-09-08T22:55:06.045Z,16.80
2018-09-08T22:57:34.732Z,18.57
2018-09-08T23:00:03.734Z,17.20
2018-09-08T23:02:32.665Z,16.00
2018-09-08T23:05:01.424Z,15.70
2018-09-08T23:07:30.509Z,16.00
2018-09-08T23:09:59.247Z,16.20
2018-09-08T23:12:28.258Z,14.73
2018-09-08T23:14:57.119Z,17.40
2018-09-08T23:17:26.593Z,16.20
2018-09-08T23:19:55.613Z,15.43
2018-09-08T23:22:25.004Z,14.13
2018-09-08T23:24:53.810Z,25.23
2018-09-08T23:27:22.558Z,17.17
2018-09-08T23:29:51.336Z,17.53
2018-09-08T23:32:20.631Z,15.50
2018-09-08T23:34:49.473Z,17.30
2018-09-08T23:37:18.561Z,15.33
2018-09-08T23:39:47.651Z,15.77
2018-09-08T23:42:16.749Z,15.07
2018-09-08T23:44:45.491Z,15.47
2018-09-08T23:47:14.540Z,12.37
2018-09-08T23:49:43.187Z,18.40
2018-09-08T23:52:12.072Z,15.90
2018-09-08T23:54:41.561Z,13.87
2018-09-08T23:57:10.851Z,15.97
